createdAt,value
2019-05-19T00:00:32.708Z,65.43
2019-05-19T00:03:02.582Z,66.17
2019-05-19T00:05:32.502Z,72.33
2019-05-19T00:08:02.300Z,71.43
2019-05-19T00:10:32.105Z,69.77
2019-05-19T00:13:02.044Z,64.20
2019-05-19T00:15:31.817Z,57.87
2019-05-19T00:18:01.665Z,74.80
2019-05-19T00:20:31.500Z,72.30
2019-05-19T00:23:01.348Z,69.13
2019-05-19T00:25:31.238Z,69.17
2019-05-19T00:28:01.137Z,63.17
2019-05-19T00:30:31.007Z,77.97
2019-05-19T00:33:00.828Z,56.77
2019-05-19T00:35:30.656Z,59.30
2019-05-19T00:38:00.485Z,59.77
2019-05-19T00:40:30.173Z,71.77
2019-05-19T00:42:59.889Z,73.97
2019-05-19T00:45:29.763Z,79.87
2019-05-19T00:48:00.042Z,80.07
2019-05-19T00:50:30.237Z,64.63
2019-05-19T00:52:59.961Z,88.47
2019-05-19T00:55:30.797Z,78.27
2019-05-19T00:58:02.403Z,61.53
2019-05-19T01:00:32.205Z,63.23
2019-05-19T01:03:02.049Z,67.10
2019-05-19T01:05:31.891Z,76.67
2019-05-19T01:08:01.702Z,72.63
2019-05-19T01:10:31.475Z,72.97
2019-05-19T01:13:01.139Z,76.13
2019-05-19T01:15:30.857Z,55.50
2019-05-19T01:18:00.647Z,63.73
2019-05-19T01:20:30.439Z,76.97
2019-05-19T01:23:00.237Z,73.17
2019-05-19T01:25:30.013Z,87.47
2019-05-19T01:27:59.797Z,64.47
2019-05-19T01:30:29.508Z,66.47
2019-05-19T01:32:59.459Z,68.97
2019-05-19T01:35:29.234Z,67.37
2019-05-19T01:37:59.021Z,83.60
2019-05-19T01:40:28.798Z,66.63
2019-05-19T01:42:58.679Z,96.37
2019-05-19T01:45:28.541Z,74.17
2019-05-19T01:47:58.276Z,62.80
2019-05-19T01:50:28.061Z,55.33
2019-05-19T01:52:57.819Z,57.53
2019-05-19T01:55:27.517Z,66.50
2019-05-19T01:57:57.234Z,78.83
2019-05-19T02:00:27.122Z,70.90
2019-05-19T02:02:56.975Z,77.97
2019-05-19T02:05:26.799Z,64.93
2019-05-19T02:07:56.705Z,67.90
2019-05-19T02:10:26.487Z,69.63
2019-05-19T02:12:56.197Z,62.60
2019-05-19T02:15:25.985Z,68.33
2019-05-19T02:17:55.843Z,65.33
2019-05-19T02:20:33.199Z,88.43
2019-05-19T02:22:57.105Z,70.17
2019-05-19T02:25:26.914Z,55.97
2019-05-19T02:27:56.645Z,56.40
2019-05-19T02:30:26.525Z,58.70
2019-05-19T02:32:56.207Z,56.20
2019-05-19T02:35:26.039Z,55.80
2019-05-19T02:37:55.756Z,48.57
2019-05-19T02:40:25.534Z,71.97
2019-05-19T02:42:57.038Z,61.93
2019-05-19T02:45:29.458Z,93.60
2019-05-19T02:48:02.161Z,62.67
2019-05-19T02:50:50.832Z,65.47
2019-05-19T02:53:09.538Z,61.70
2019-05-19T02:55:41.288Z,65.50
2019-05-19T02:58:13.493Z,83.83
2019-05-19T03:00:44.087Z,69.43
2019-05-19T03:03:14.235Z,68.23
2019-05-19T03:05:44.032Z,68.80
2019-05-19T03:08:13.725Z,85.90
2019-05-19T03:10:43.569Z,62.70
2019-05-19T03:13:13.290Z,64.87
2019-05-19T03:15:43.007Z,84.63
2019-05-19T03:18:12.931Z,76.90
2019-05-19T03:20:42.705Z,50.17
2019-05-19T03:23:12.573Z,61.33
2019-05-19T03:25:44.180Z,66.87
2019-05-19T03:28:13.655Z,67.87
2019-05-19T03:30:55.092Z,68.30
2019-05-19T03:33:27.921Z,53.73
2019-05-19T03:35:57.736Z,48.67
2019-05-19T03:38:27.538Z,64.47
2019-05-19T03:40:57.324Z,58.00
2019-05-19T03:43:27.419Z,54.53
2019-05-19T03:45:57.151Z,69.80
2019-05-19T03:48:27.009Z,69.30
2019-05-19T03:50:56.897Z,60.80
2019-05-19T03:53:26.706Z,67.07
2019-05-19T03:55:56.467Z,63.27
2019-05-19T03:58:26.316Z,78.67
2019-05-19T04:00:56.120Z,47.00
2019-05-19T04:03:25.851Z,76.03
2019-05-19T04:05:55.678Z,62.17
2019-05-19T04:08:25.463Z,61.20
2019-05-19T04:10:55.559Z,58.03
2019-05-19T04:13:25.466Z,56.50
2019-05-19T04:15:55.322Z,50.60
2019-05-19T04:18:25.022Z,72.33
2019-05-19T04:20:54.856Z,75.40
2019-05-19T04:23:24.692Z,63.20
2019-05-19T04:25:54.499Z,54.60
2019-05-19T04:28:24.367Z,74.97
2019-05-19T04:30:54.183Z,62.83
2019-05-19T04:33:23.969Z,67.40
2019-05-19T04:35:57.299Z,67.57
2019-05-19T04:38:25.129Z,62.70
2019-05-19T04:40:55.021Z,72.50
2019-05-19T04:43:24.750Z,58.77
2019-05-19T04:45:54.438Z,65.53
2019-05-19T04:48:24.311Z,65.03
2019-05-19T04:54:35.336Z,63.67
2019-05-19T04:57:05.082Z,58.23
2019-05-19T04:59:34.755Z,61.73
2019-05-19T05:02:04.615Z,63.70
2019-05-19T05:04:34.449Z,65.50
2019-05-19T05:07:04.230Z,72.90
2019-05-19T05:09:34.071Z,62.53
2019-05-19T05:12:03.736Z,59.63
2019-05-19T05:14:34.393Z,69.93
2019-05-19T05:17:04.147Z,60.00
2019-05-19T05:19:33.907Z,64.70
2019-05-19T05:22:03.693Z,73.30
2019-05-19T05:24:33.406Z,68.70
2019-05-19T05:27:03.169Z,69.77
2019-05-19T05:29:33.018Z,67.27
2019-05-19T05:32:02.943Z,60.63
2019-05-19T05:34:32.725Z,67.37
2019-05-19T05:37:02.623Z,57.30
2019-05-19T05:39:32.333Z,63.57
2019-05-19T05:42:10.708Z,69.53
2019-05-19T05:44:40.506Z,64.93
2019-05-19T05:47:10.381Z,65.97
2019-05-19T05:49:40.075Z,67.83
2019-05-19T05:52:10.008Z,65.33
2019-05-19T05:54:39.754Z,60.77
2019-05-19T05:57:09.505Z,56.17
2019-05-19T05:59:39.267Z,62.83
2019-05-19T06:02:09.062Z,69.67
2019-05-19T06:04:38.891Z,56.93
2019-05-19T06:07:08.637Z,70.40
2019-05-19T06:09:38.419Z,67.73
2019-05-19T06:12:08.071Z,67.37
2019-05-19T06:14:37.844Z,56.00
2019-05-19T06:17:07.555Z,66.80
2019-05-19T06:19:37.301Z,61.10
2019-05-19T06:22:07.158Z,66.77
2019-05-19T06:24:36.843Z,69.77
2019-05-19T06:27:06.590Z,59.73
2019-05-19T06:29:36.314Z,68.37
2019-05-19T06:32:16.487Z,62.10
2019-05-19T06:34:46.249Z,55.40
2019-05-19T06:37:15.981Z,56.13
2019-05-19T06:44:07.469Z,60.77
2019-05-19T06:46:37.257Z,51.60
2019-05-19T06:49:07.036Z,50.13
2019-05-19T06:51:36.831Z,67.87
2019-05-19T06:54:06.653Z,62.17
2019-05-19T06:56:36.441Z,64.20
2019-05-19T06:59:06.306Z,60.43
2019-05-19T07:01:35.986Z,61.70
2019-05-19T07:04:05.779Z,60.50
2019-05-19T07:06:35.667Z,61.53
2019-05-19T07:09:06.935Z,65.13
2019-05-19T07:11:36.692Z,62.67
2019-05-19T07:14:06.857Z,50.77
2019-05-19T07:16:36.775Z,52.57
2019-05-19T07:22:24.139Z,53.07
2019-05-19T07:24:53.901Z,81.87
2019-05-19T07:27:23.596Z,43.63
2019-05-19T07:29:53.514Z,60.13
2019-05-19T07:32:23.292Z,42.77
2019-05-19T07:34:53.128Z,52.10
2019-05-19T07:37:22.937Z,52.77
2019-05-19T07:39:52.788Z,55.57
2019-05-19T07:42:22.580Z,56.07
2019-05-19T07:44:52.449Z,55.50
2019-05-19T07:47:22.250Z,53.83
2019-05-19T07:53:24.414Z,48.97
2019-05-19T07:55:54.220Z,42.87
2019-05-19T07:58:24.183Z,49.00
2019-05-19T08:00:53.858Z,52.23
2019-05-19T08:03:23.720Z,55.13
2019-05-19T08:05:53.414Z,45.17
2019-05-19T08:08:23.134Z,52.73
2019-05-19T08:10:52.910Z,48.27
2019-05-19T08:13:22.774Z,52.57
2019-05-19T08:15:52.616Z,50.33
2019-05-19T08:18:22.380Z,47.20
2019-05-19T08:20:52.161Z,50.97
2019-05-19T08:23:21.873Z,40.83
2019-05-19T08:25:54.296Z,45.30
2019-05-19T08:28:24.178Z,49.43
2019-05-19T08:30:53.989Z,39.57
2019-05-19T08:33:23.836Z,50.20
2019-05-19T08:35:53.599Z,48.93
2019-05-19T08:38:23.342Z,46.23
2019-05-19T08:40:53.263Z,45.47
2019-05-19T08:43:23.077Z,50.67
2019-05-19T08:45:52.857Z,47.20
2019-05-19T08:48:22.731Z,40.70
2019-05-19T08:50:52.479Z,44.63
2019-05-19T08:53:22.406Z,41.70
2019-05-19T08:55:52.071Z,39.13
2019-05-19T08:58:21.840Z,40.87
2019-05-19T09:00:51.529Z,37.97
2019-05-19T09:03:21.352Z,35.80
2019-05-19T09:05:51.169Z,37.40
2019-05-19T09:08:20.913Z,31.13
2019-05-19T09:10:50.886Z,36.93
2019-05-19T09:13:20.641Z,35.77
2019-05-19T09:15:50.362Z,35.57
2019-05-19T09:18:20.111Z,37.80
2019-05-19T09:20:49.842Z,42.33
2019-05-19T09:23:19.529Z,35.97
2019-05-19T09:25:49.285Z,38.00
2019-05-19T09:28:19.115Z,41.60
2019-05-19T09:30:48.929Z,33.03
2019-05-19T09:33:19.544Z,36.97
2019-05-19T09:35:49.302Z,36.07
2019-05-19T09:38:18.973Z,36.57
2019-05-19T09:40:48.756Z,29.33
2019-05-19T09:43:18.449Z,32.80
2019-05-19T09:45:48.184Z,34.27
2019-05-19T09:48:17.988Z,31.87
2019-05-19T09:50:47.839Z,36.33
2019-05-19T09:53:17.613Z,35.27
2019-05-19T09:55:47.336Z,38.27
2019-05-19T09:58:20.045Z,37.43
2019-05-19T10:00:48.555Z,38.60
2019-05-19T10:03:19.766Z,30.77
2019-05-19T10:05:49.881Z,34.10
2019-05-19T10:08:25.219Z,36.90
2019-05-19T10:11:29.082Z,33.63
2019-05-19T10:13:58.837Z,30.40
2019-05-19T10:16:28.626Z,27.60
2019-05-19T10:18:58.386Z,27.97
2019-05-19T10:21:28.204Z,28.63
2019-05-19T10:23:58.031Z,28.67
2019-05-19T10:26:27.745Z,23.03
2019-05-19T10:28:57.473Z,29.00
2019-05-19T10:31:27.258Z,22.80
2019-05-19T10:33:57.148Z,28.03
2019-05-19T10:36:27.085Z,20.43
2019-05-19T10:38:56.913Z,23.43
2019-05-19T10:41:26.721Z,24.17
2019-05-19T10:44:00.862Z,21.67
2019-05-19T10:46:31.017Z,21.10
2019-05-19T10:49:00.820Z,21.03
2019-05-19T10:51:30.573Z,17.97
2019-05-19T10:54:00.416Z,23.43
2019-05-19T10:56:30.245Z,21.43
2019-05-19T10:59:00.128Z,21.13
2019-05-19T11:01:29.864Z,23.00
2019-05-19T11:03:59.676Z,22.50
2019-05-19T11:06:29.416Z,22.33
2019-05-19T11:08:59.281Z,19.33
2019-05-19T11:11:29.077Z,20.70
2019-05-19T11:13:58.907Z,21.43
2019-05-19T11:16:28.659Z,18.47
2019-05-19T11:18:58.395Z,20.23
2019-05-19T11:21:28.152Z,20.40
2019-05-19T11:23:58.609Z,14.03
2019-05-19T11:26:28.392Z,17.27
2019-05-19T11:28:58.160Z,11.57
2019-05-19T11:31:27.859Z,11.33
2019-05-19T11:33:57.654Z,11.23
2019-05-19T11:36:27.370Z,10.27
2019-05-19T11:38:57.203Z,17.60
2019-05-19T11:41:27.053Z,11.70
2019-05-19T11:43:56.825Z,14.83
2019-05-19T11:46:26.635Z,14.97
2019-05-19T11:48:56.391Z,14.77
2019-05-19T11:51:26.227Z,16.97
2019-05-19T11:53:56.020Z,17.27
2019-05-19T11:56:25.719Z,16.93
2019-05-19T11:58:55.529Z,17.17
2019-05-19T12:01:25.308Z,15.70
2019-05-19T12:03:55.597Z,16.00
2019-05-19T12:06:38.243Z,15.47
2019-05-19T12:08:56.956Z,18.73
2019-05-19T12:11:26.762Z,13.97
2019-05-19T12:13:56.614Z,16.43
2019-05-19T12:16:26.380Z,13.50
2019-05-19T12:18:57.578Z,14.07
2019-05-19T12:21:27.594Z,16.17
2019-05-19T12:23:57.356Z,15.17
2019-05-19T12:26:27.016Z,14.07
2019-05-19T12:28:56.775Z,13.10
2019-05-19T12:31:26.527Z,11.00
2019-05-19T12:33:56.336Z,13.93
2019-05-19T12:36:26.113Z,13.13
2019-05-19T12:38:55.883Z,11.87
2019-05-19T12:41:25.594Z,13.47
2019-05-19T12:43:55.340Z,14.43
2019-05-19T12:46:25.074Z,13.47
2019-05-19T12:48:54.792Z,10.90
2019-05-19T12:51:26.937Z,11.70
2019-05-19T12:53:56.713Z,11.23
2019-05-19T12:56:38.772Z,12.13
2019-05-19T12:58:58.357Z,9.17
2019-05-19T13:01:28.411Z,7.73
2019-05-19T13:03:58.210Z,9.70
2019-05-19T13:06:27.979Z,9.87
2019-05-19T13:08:57.722Z,8.73
2019-05-19T13:11:27.506Z,11.17
2019-05-19T13:13:57.180Z,9.33
2019-05-19T13:16:26.968Z,13.93
2019-05-19T13:18:56.774Z,10.83
2019-05-19T13:21:26.430Z,10.03
2019-05-19T13:23:56.165Z,11.33
2019-05-19T13:26:25.927Z,11.60
2019-05-19T13:28:55.710Z,11.30
2019-05-19T13:31:25.513Z,11.90
2019-05-19T13:33:55.179Z,10.27
2019-05-19T13:36:24.993Z,11.77
2019-05-19T13:38:54.636Z,13.73
2019-05-19T13:41:24.534Z,12.83
2019-05-19T13:43:54.358Z,11.90
2019-05-19T13:46:24.056Z,15.17
2019-05-19T13:48:53.886Z,13.63
2019-05-19T13:51:23.831Z,12.83
2019-05-19T13:53:53.634Z,12.13
2019-05-19T13:56:23.643Z,13.20
2019-05-19T13:58:53.478Z,14.73
2019-05-19T14:01:28.627Z,13.13
2019-05-19T14:03:54.845Z,11.03
2019-05-19T14:06:24.711Z,12.90
2019-05-19T14:08:54.744Z,23.80
2019-05-19T14:11:24.656Z,26.50
2019-05-19T14:13:54.364Z,29.83
2019-05-19T14:16:26.512Z,27.27
2019-05-19T14:19:00.963Z,27.83
2019-05-19T14:21:30.789Z,26.43
2019-05-19T14:24:00.605Z,27.50
2019-05-19T14:26:33.883Z,27.03
2019-05-19T14:29:03.800Z,29.63
2019-05-19T14:31:36.548Z,25.57
2019-05-19T14:34:09.667Z,23.50
2019-05-19T14:36:42.745Z,28.00
2019-05-19T14:39:12.521Z,23.40
2019-05-19T14:41:48.050Z,28.50
2019-05-19T14:44:17.799Z,26.53
2019-05-19T14:46:47.615Z,25.33
2019-05-19T14:49:17.331Z,20.37
2019-05-19T14:51:47.255Z,24.47
2019-05-19T14:54:17.037Z,26.57
2019-05-19T14:56:58.925Z,28.53
2019-05-19T14:59:28.835Z,23.73
2019-05-19T15:05:39.758Z,21.63
2019-05-19T15:08:09.609Z,18.50
2019-05-19T15:10:39.416Z,20.60
2019-05-19T15:13:09.250Z,19.67
2019-05-19T15:15:42.861Z,19.00
2019-05-19T15:18:13.424Z,19.37
2019-05-19T15:20:43.388Z,21.17
2019-05-19T15:23:13.243Z,24.00
2019-05-19T15:25:42.996Z,19.33
2019-05-19T15:28:12.798Z,30.53
2019-05-19T15:30:42.615Z,21.47
2019-05-19T15:33:12.551Z,24.20
2019-05-19T15:43:32.367Z,35.37
2019-05-19T15:46:02.176Z,33.27
2019-05-19T15:48:31.964Z,30.43
2019-05-19T15:51:01.669Z,34.57
2019-05-19T15:53:31.543Z,33.33
2019-05-19T15:56:01.284Z,33.33
2019-05-19T15:58:31.075Z,29.47
2019-05-19T16:01:00.859Z,26.60
2019-05-19T16:03:30.642Z,26.13
2019-05-19T16:06:00.375Z,30.80
2019-05-19T16:08:30.109Z,33.60
2019-05-19T16:10:59.891Z,29.47
2019-05-19T16:13:29.634Z,35.53
2019-05-19T16:16:01.155Z,31.87
2019-05-19T16:18:30.824Z,29.47
2019-05-19T16:21:00.537Z,30.87
2019-05-19T16:23:30.535Z,33.70
2019-05-19T16:26:04.171Z,30.20
2019-05-19T16:28:33.965Z,36.70
2019-05-19T16:31:03.932Z,35.50
2019-05-19T16:33:33.866Z,33.70
2019-05-19T16:36:03.644Z,35.77
2019-05-19T16:38:33.543Z,36.90
2019-05-19T16:41:03.324Z,39.23
2019-05-19T16:43:33.053Z,36.23
2019-05-19T16:46:02.718Z,37.47
2019-05-19T16:48:32.479Z,40.90
2019-05-19T16:51:02.205Z,21.20
2019-05-19T16:53:31.984Z,8.73
2019-05-19T16:56:01.771Z,8.10
2019-05-19T16:58:44.368Z,9.90
2019-05-19T17:01:04.653Z,8.50
2019-05-19T17:03:34.473Z,6.70
2019-05-19T17:06:04.236Z,7.70
2019-05-19T17:08:34.042Z,11.53
2019-05-19T17:11:17.547Z,4.97
2019-05-19T17:13:35.311Z,9.67
2019-05-19T17:16:05.200Z,6.03
2019-05-19T17:18:35.162Z,7.40
2019-05-19T17:21:04.905Z,9.13
2019-05-19T17:23:34.867Z,10.93
2019-05-19T17:26:04.998Z,9.27
2019-05-19T17:28:34.795Z,15.27
2019-05-19T17:31:07.471Z,9.63
2019-05-19T17:33:35.992Z,15.10
2019-05-19T17:36:05.910Z,7.23
2019-05-19T17:38:35.718Z,8.20
2019-05-19T17:41:05.894Z,7.70
2019-05-19T17:43:35.714Z,10.87
2019-05-19T17:46:08.718Z,12.47
2019-05-19T17:48:38.373Z,19.63
2019-05-19T17:51:08.168Z,14.67
2019-05-19T17:53:38.016Z,15.33
2019-05-19T17:56:07.767Z,12.00
2019-05-19T17:58:38.317Z,13.47
2019-05-19T18:01:08.069Z,15.33
2019-05-19T18:03:39.475Z,11.50
2019-05-19T18:13:14.433Z,14.80
2019-05-19T18:15:44.127Z,13.13
2019-05-19T18:18:13.878Z,9.07
2019-05-19T18:20:46.559Z,12.60
2019-05-19T18:23:15.037Z,10.67
2019-05-19T18:25:44.825Z,13.03
2019-05-19T18:28:14.614Z,15.40
2019-05-19T18:30:44.454Z,11.43
2019-05-19T18:33:14.419Z,10.27
2019-05-19T18:35:44.302Z,13.23
2019-05-19T18:41:46.655Z,12.50
2019-05-19T18:44:16.391Z,12.87
2019-05-19T18:46:46.558Z,14.40
2019-05-19T18:49:16.757Z,14.20
2019-05-19T18:51:46.625Z,12.77
2019-05-19T18:54:16.489Z,16.70
2019-05-19T18:56:46.456Z,12.17
2019-05-19T18:59:16.214Z,15.63
2019-05-19T19:01:46.304Z,15.50
2019-05-19T19:04:16.128Z,17.80
2019-05-19T19:06:46.021Z,17.60
2019-05-19T19:09:16.028Z,17.77
2019-05-19T19:11:45.906Z,20.33
2019-05-19T19:14:15.728Z,20.73
2019-05-19T19:16:45.513Z,25.27
2019-05-19T19:19:15.283Z,26.47
2019-05-19T19:30:03.477Z,22.03
2019-05-19T19:32:27.733Z,23.87
2019-05-19T19:34:57.580Z,23.17
2019-05-19T19:37:27.414Z,20.70
2019-05-19T19:39:57.151Z,19.67
2019-05-19T19:42:27.287Z,20.60
2019-05-19T19:44:57.536Z,17.87
2019-05-19T19:47:27.321Z,15.63
2019-05-19T19:49:57.066Z,23.93
2019-05-19T19:52:26.835Z,18.40
2019-05-19T19:54:56.605Z,24.43
2019-05-19T19:57:26.471Z,18.03
2019-05-19T19:59:56.374Z,22.43
2019-05-19T20:02:26.299Z,22.60
2019-05-19T20:04:56.040Z,23.30
2019-05-19T20:07:25.833Z,28.23
2019-05-19T20:09:55.779Z,19.80
2019-05-19T20:12:25.655Z,17.47
2019-05-19T20:14:55.499Z,22.77
2019-05-19T20:17:25.397Z,15.70
2019-05-19T20:19:55.163Z,23.80
2019-05-19T20:22:24.957Z,17.17
2019-05-19T20:24:54.744Z,15.17
2019-05-19T20:27:24.644Z,15.80
2019-05-19T20:29:54.509Z,17.80
2019-05-19T20:32:24.296Z,20.03
2019-05-19T20:34:54.207Z,16.33
2019-05-19T20:37:27.184Z,18.93
2019-05-19T20:39:56.943Z,19.17
2019-05-19T20:43:32.301Z,19.53
2019-05-19T20:45:46.753Z,17.57
2019-05-19T20:48:16.522Z,15.97
2019-05-19T20:50:50.311Z,18.33
2019-05-19T20:53:20.003Z,13.80
2019-05-19T20:55:49.844Z,20.77
2019-05-19T20:58:20.595Z,17.67
2019-05-19T21:00:51.931Z,20.57
2019-05-19T21:03:22.119Z,17.90
2019-05-19T21:05:51.897Z,16.93
2019-05-19T21:15:26.820Z,15.07
2019-05-19T21:17:56.729Z,13.83
2019-05-19T21:20:26.465Z,17.37
2019-05-19T21:22:56.299Z,17.30
2019-05-19T21:25:26.043Z,13.23
2019-05-19T21:27:55.798Z,16.33
2019-05-19T21:30:25.586Z,14.00
2019-05-19T21:32:55.374Z,14.47
2019-05-19T21:35:25.262Z,14.23
2019-05-19T21:41:57.185Z,13.40
2019-05-19T21:44:26.943Z,16.37
2019-05-19T21:46:56.692Z,19.77
2019-05-19T21:49:26.379Z,14.73
2019-05-19T21:51:56.127Z,13.63
2019-05-19T21:54:25.797Z,13.70
2019-05-19T21:56:55.534Z,23.23
2019-05-19T21:59:25.391Z,12.37
2019-05-19T22:01:55.141Z,17.67
2019-05-19T22:04:24.907Z,16.47
2019-05-19T22:07:02.376Z,15.77
2019-05-19T22:09:32.072Z,14.77
2019-05-19T22:12:01.948Z,15.93
2019-05-19T22:14:31.801Z,13.93
2019-05-19T22:17:01.580Z,15.60
2019-05-19T22:19:31.274Z,13.33
2019-05-19T22:22:00.923Z,21.03
2019-05-19T22:24:30.686Z,13.37
2019-05-19T22:27:00.425Z,18.90
2019-05-19T22:29:30.118Z,19.87
2019-05-19T22:32:00.323Z,18.33
2019-05-19T22:34:30.132Z,15.03
2019-05-19T22:36:59.812Z,13.13
2019-05-19T22:39:29.580Z,18.33
2019-05-19T22:41:59.326Z,15.53
2019-05-19T22:44:28.997Z,12.73
2019-05-19T22:46:58.759Z,17.07
2019-05-19T22:49:28.538Z,19.70
2019-05-19T22:51:58.339Z,25.03
2019-05-19T22:54:28.014Z,20.73
2019-05-19T22:56:57.780Z,20.33
2019-05-19T22:59:27.514Z,24.13
2019-05-19T23:01:57.178Z,28.90
2019-05-19T23:04:26.951Z,28.40
2019-05-19T23:06:56.873Z,32.67
2019-05-19T23:09:26.710Z,34.10
2019-05-19T23:11:56.586Z,30.57
2019-05-19T23:14:26.464Z,29.57
2019-05-19T23:16:56.341Z,34.20
2019-05-19T23:19:26.132Z,30.73
2019-05-19T23:21:55.970Z,25.30
2019-05-19T23:24:25.684Z,36.73
2019-05-19T23:26:55.453Z,25.70
2019-05-19T23:29:25.364Z,29.83
2019-05-19T23:32:06.749Z,35.20
2019-05-19T23:34:26.574Z,31.30
2019-05-19T23:36:56.494Z,31.90
2019-05-19T23:39:26.371Z,37.60
2019-05-19T23:41:56.158Z,35.83
2019-05-19T23:44:26.074Z,36.00
2019-05-19T23:46:55.904Z,43.13
2019-05-19T23:49:25.635Z,41.20
2019-05-19T23:51:55.448Z,43.90
2019-05-19T23:54:25.261Z,44.67
2019-05-19T23:56:54.927Z,44.67
2019-05-19T23:59:24.840Z,43.43
